»·PEaware :: N35CF KRDD-KMFR

N35CF :: KRDD-KMFR

FLIGHT INFORMATION

Flight Status: Arrived
Operator: Privately registered:
United States
More flights under this callsign
Pilot: Anonymous 18613 (18613)
Aircraft: BEECH AIRCRAFT A90-E90 KING AIR
(BE9L)
More flights by this aircraft type
Origin: KRDD Redding Mun
United States
Destination: KMFR Rogue Valley Intl-Medford
United States
More flights between these airports :: More routes between these airports
Route: SHA3 FJS V23 OED
File this flight plan on PilotEdge
Remarks:
Altitude:
(Current/Filed)
14,000ft
Speed:
(Current/Filed)
185kts
Departed: 12-Aug-18 04:53 PM
Arrived: 12-Aug-18 05:40 PM
Distance/Time
Traveled:
115nm/0:47
Distance/Time
To Go:
Arrived

Flight Plot

Page will automatically refresh every two minutes.

Flight plan parsing failed; only flown route is shown


Map Options




Map Legend


Flown Route
Filed Route
Departure Airport
Arrival Airport
Navaid (VOR, NDB)
Fix

Horizontal Profiles

Position Reports

Time Latitude Longitude Heading Altitude Ground
Speed
12-Aug-18 16:30 40.510580 -122.300533 179 506ft 0kts
12-Aug-18 16:31 40.510580 -122.300533 179 506ft 0kts
12-Aug-18 16:32 40.510580 -122.300533 179 506ft 0kts
12-Aug-18 16:33 40.510580 -122.300533 179 506ft 0kts
12-Aug-18 16:34 40.510580 -122.300533 180 506ft 0kts
12-Aug-18 16:35 40.510580 -122.300533 180 506ft 0kts
12-Aug-18 16:36 40.510580 -122.300533 179 506ft 0kts
12-Aug-18 16:37 40.510580 -122.300533 180 506ft 0kts
12-Aug-18 16:38 40.510579 -122.300533 180 506ft 0kts
12-Aug-18 16:39 40.510579 -122.300533 180 506ft 0kts
12-Aug-18 16:40 40.510580 -122.300533 180 506ft 0kts
12-Aug-18 16:41 40.510580 -122.300533 180 506ft 0kts
12-Aug-18 16:42 40.510580 -122.300533 180 506ft 0kts
12-Aug-18 16:43 40.510580 -122.300533 180 506ft 0kts
12-Aug-18 16:44 40.510580 -122.300533 180 506ft 0kts
12-Aug-18 16:45 40.510579 -122.300533 180 506ft 0kts
12-Aug-18 16:46 40.510648 -122.299738 35 506ft 13kts
12-Aug-18 16:47 40.510946 -122.298821 89 506ft 0kts
12-Aug-18 16:48 40.511468 -122.298601 5 506ft 10kts
12-Aug-18 16:49 40.517963 -122.296280 1 506ft 26kts
12-Aug-18 16:50 40.520240 -122.295841 87 506ft 0kts
12-Aug-18 16:51 40.520240 -122.295841 87 506ft 0kts
12-Aug-18 16:52 40.520240 -122.295841 87 506ft 0kts
12-Aug-18 16:53 40.520133 -122.294850 176 506ft 0kts
12-Aug-18 16:54 40.517473 -122.294854 180 506ft 78kts
12-Aug-18 16:55 40.481407 -122.294303 175 1661ft 146kts
12-Aug-18 16:56 40.440380 -122.289136 175 3398ft 149kts
12-Aug-18 16:57 40.398979 -122.284505 195 4950ft 155kts
12-Aug-18 16:58 40.410118 -122.327580 339 6382ft 178kts
12-Aug-18 16:59 40.459410 -122.349790 342 7453ft 194kts
12-Aug-18 17:00 40.510437 -122.373346 339 8576ft 195kts
12-Aug-18 17:01 40.561463 -122.396535 337 9669ft 194kts
12-Aug-18 17:02 40.612223 -122.419517 336 10716ft 193kts
12-Aug-18 17:03 40.662740 -122.442588 335 11725ft 191kts
12-Aug-18 17:04 40.712609 -122.465338 335 12676ft 190kts
12-Aug-18 17:05 40.762540 -122.488109 335 13579ft 190kts
12-Aug-18 17:06 40.813948 -122.511758 336 14003ft 211kts
12-Aug-18 17:07 40.871997 -122.538273 336 14001ft 228kts
12-Aug-18 17:08 40.932591 -122.566104 336 14000ft 233kts
12-Aug-18 17:09 40.993504 -122.594158 336 14013ft 227kts
12-Aug-18 17:10 41.050937 -122.620652 337 14045ft 212kts
12-Aug-18 17:11 41.103754 -122.645135 338 14090ft 205kts
12-Aug-18 17:12 41.155481 -122.669564 337 14013ft 207kts
12-Aug-18 17:13 41.209366 -122.694682 338 14008ft 204kts
12-Aug-18 17:14 41.262612 -122.719428 338 14009ft 202kts
12-Aug-18 17:15 41.315624 -122.744026 338 14009ft 202kts
12-Aug-18 17:16 41.368564 -122.768662 338 14011ft 215kts
12-Aug-18 17:17 41.426280 -122.795550 338 14009ft 223kts
12-Aug-18 17:18 41.487889 -122.808987 354 14009ft 228kts
12-Aug-18 17:19 41.550705 -122.813674 354 14009ft 228kts
12-Aug-18 17:20 41.614177 -122.818252 355 13742ft 240kts
12-Aug-18 17:21 41.680951 -122.823039 355 12372ft 245kts
12-Aug-18 17:22 41.744339 -122.827608 355 12027ft 223kts
12-Aug-18 17:23 41.806147 -122.832077 355 12028ft 227kts
12-Aug-18 17:24 41.868852 -122.836612 355 12027ft 228kts
12-Aug-18 17:25 41.934216 -122.841338 356 10257ft 267kts
12-Aug-18 17:26 41.999701 -122.846099 355 10027ft 227kts
12-Aug-18 17:27 42.062666 -122.850686 355 10016ft 227kts
12-Aug-18 17:28 42.123511 -122.860170 345 9800ft 234kts
12-Aug-18 17:29 42.188257 -122.880675 345 9308ft 235kts
12-Aug-18 17:30 42.251409 -122.906279 341 8699ft 245kts
12-Aug-18 17:31 42.310109 -122.931505 341 8005ft 190kts
12-Aug-18 17:32 42.354180 -122.950136 341 8009ft 154kts
12-Aug-18 17:33 42.403704 -122.971120 341 8011ft 206kts
12-Aug-18 17:34 42.459110 -122.994734 341 7321ft 205kts
12-Aug-18 17:35 42.509788 -122.992107 36 6054ft 199kts
12-Aug-18 17:36 42.533265 -122.940893 134 4710ft 160kts
12-Aug-18 17:37 42.493053 -122.935814 155 3837ft 170kts
12-Aug-18 17:38 42.453583 -122.914520 158 2808ft 145kts
12-Aug-18 17:39 42.414669 -122.894102 158 1984ft 140kts
12-Aug-18 17:40 42.386479 -122.879227 160 1388ft 101kts
12-Aug-18 17:41 42.376182 -122.874818 248 1336ft 1kts
12-Aug-18 17:42 42.373530 -122.874105 158 1336ft 3kts
12-Aug-18 17:43 42.371150 -122.876004 254 1336ft 3kts
12-Aug-18 17:44 42.371162 -122.876111 289 1336ft 0kts
12-Aug-18 17:45 42.371162 -122.876111 289 1336ft 0kts

Navigation Log

Ident Type
Flight plan parsing failed, navigation log unavailable